createdAt,value
2023-04-03T00:00:25.635Z,24.62
2023-04-03T00:00:55.698Z,24.64
2023-04-03T00:01:25.725Z,24.61
2023-04-03T00:01:55.787Z,24.64
2023-04-03T00:02:25.854Z,24.62
2023-04-03T00:02:55.805Z,24.62
2023-04-03T00:03:25.864Z,24.62
2023-04-03T00:03:55.936Z,24.62
2023-04-03T00:04:26.011Z,24.64
2023-04-03T00:04:56.082Z,24.64
2023-04-03T00:05:26.113Z,24.62
2023-04-03T00:05:56.217Z,24.62
2023-04-03T00:06:26.220Z,24.64
2023-04-03T00:06:56.218Z,24.61
2023-04-03T00:07:26.208Z,24.64
2023-04-03T00:07:56.338Z,24.62
2023-04-03T00:08:26.328Z,24.60
2023-04-03T00:08:56.336Z,24.61
2023-04-03T00:09:26.438Z,24.62
2023-04-03T00:09:56.577Z,24.61
2023-04-03T00:10:26.692Z,24.62
2023-04-03T00:10:56.811Z,24.62
2023-04-03T00:11:26.801Z,24.61
2023-04-03T00:11:56.796Z,24.61
2023-04-03T00:12:26.800Z,24.60
2023-04-03T00:12:56.789Z,24.58
2023-04-03T00:13:26.789Z,24.60
2023-04-03T00:13:56.784Z,24.60
2023-04-03T00:14:26.913Z,24.60
2023-04-03T00:14:56.908Z,24.61
2023-04-03T00:15:26.909Z,24.60
2023-04-03T00:15:57.038Z,24.58
2023-04-03T00:16:27.112Z,24.61
2023-04-03T00:16:57.151Z,24.60
2023-04-03T00:17:27.225Z,24.58
2023-04-03T00:17:57.311Z,24.58
2023-04-03T00:18:27.370Z,24.60
2023-04-03T00:18:57.402Z,24.58
2023-04-03T00:19:27.400Z,24.60
2023-04-03T00:19:57.440Z,24.57
2023-04-03T00:20:27.475Z,24.60
2023-04-03T00:20:57.520Z,24.58
2023-04-03T00:21:27.556Z,24.60
2023-04-03T00:21:57.580Z,24.58
2023-04-03T00:22:27.619Z,24.58
2023-04-03T00:22:57.642Z,24.55
2023-04-03T00:23:27.679Z,24.61
2023-04-03T00:23:57.716Z,24.58
2023-04-03T00:24:27.755Z,24.58
2023-04-03T00:24:57.792Z,24.58
2023-04-03T00:25:27.833Z,24.57
2023-04-03T00:25:58.035Z,24.57
2023-04-03T00:26:27.957Z,24.57
2023-04-03T00:26:57.989Z,24.57
2023-04-03T00:27:28.029Z,24.57
2023-04-03T00:27:58.056Z,24.55
2023-04-03T00:28:28.092Z,24.57
2023-04-03T00:28:58.124Z,24.57
2023-04-03T00:29:28.184Z,24.57
2023-04-03T00:29:58.216Z,24.58
2023-04-03T00:30:28.239Z,24.58
2023-04-03T00:30:58.405Z,24.58
2023-04-03T00:31:28.460Z,24.57
2023-04-03T00:31:58.443Z,24.57
2023-04-03T00:32:28.490Z,24.57
2023-04-03T00:32:58.581Z,24.57
2023-04-03T00:33:28.629Z,24.57
2023-04-03T00:33:58.676Z,24.60
2023-04-03T00:34:28.722Z,24.57
2023-04-03T00:34:58.747Z,24.57
2023-04-03T00:35:28.777Z,24.58
2023-04-03T00:35:58.859Z,24.58
2023-04-03T00:36:28.982Z,24.58
2023-04-03T00:36:59.061Z,24.55
2023-04-03T00:37:28.995Z,24.58
2023-04-03T00:37:59.034Z,24.55
2023-04-03T00:38:29.056Z,24.57
2023-04-03T00:38:59.086Z,24.55
2023-04-03T00:39:29.153Z,24.55
2023-04-03T00:39:59.186Z,24.55
2023-04-03T00:40:29.209Z,24.55
2023-04-03T00:40:59.464Z,24.58
2023-04-03T00:41:29.242Z,24.57
2023-04-03T00:41:59.279Z,24.55
2023-04-03T00:42:29.302Z,24.55
2023-04-03T00:42:59.331Z,24.57
2023-04-03T00:43:29.357Z,24.57
2023-04-03T00:43:59.395Z,24.57
2023-04-03T00:44:29.471Z,24.57
2023-04-03T00:44:59.484Z,24.55
2023-04-03T00:45:29.516Z,24.55
2023-04-03T00:45:59.651Z,24.55
2023-04-03T00:46:29.627Z,24.57
2023-04-03T00:46:59.640Z,24.57
2023-04-03T00:47:29.690Z,24.57
2023-04-03T00:47:59.770Z,24.54
2023-04-03T00:48:29.783Z,24.57
2023-04-03T00:48:59.820Z,24.54
2023-04-03T00:49:29.889Z,24.57
2023-04-03T00:49:59.911Z,24.54
2023-04-03T00:50:29.930Z,24.55
2023-04-03T00:50:59.972Z,24.55
2023-04-03T00:51:29.995Z,24.57
2023-04-03T00:52:00.048Z,24.57
2023-04-03T00:52:30.065Z,24.55
2023-04-03T00:53:00.128Z,24.55
2023-04-03T00:53:30.161Z,24.54
2023-04-03T00:54:00.198Z,24.54
2023-04-03T00:54:30.238Z,24.54
2023-04-03T00:55:00.265Z,24.55
2023-04-03T00:55:30.304Z,24.54
2023-04-03T00:56:00.341Z,24.54
2023-04-03T00:56:30.373Z,24.55
2023-04-03T00:57:00.453Z,24.54
2023-04-03T00:57:30.542Z,24.55
2023-04-03T00:58:00.566Z,24.54
2023-04-03T00:58:30.551Z,24.57
2023-04-03T00:59:00.587Z,24.54
2023-04-03T00:59:30.611Z,24.54
2023-04-03T01:00:00.650Z,24.54
2023-04-03T01:00:30.678Z,24.54
2023-04-03T01:01:00.746Z,24.55
2023-04-03T01:01:30.794Z,24.54
2023-04-03T01:02:00.942Z,24.54
2023-04-03T01:02:30.883Z,24.53
2023-04-03T01:03:00.953Z,24.54
2023-04-03T01:03:30.988Z,24.54
2023-04-03T01:04:01.136Z,24.53
2023-04-03T01:04:31.209Z,24.53
2023-04-03T01:05:01.162Z,24.54
2023-04-03T01:05:31.180Z,24.53
2023-04-03T01:06:01.227Z,24.55
2023-04-03T01:06:31.226Z,24.53
2023-04-03T01:07:01.345Z,24.50
2023-04-03T01:07:31.349Z,24.53
2023-04-03T01:08:01.350Z,24.53
2023-04-03T01:08:31.344Z,24.54
2023-04-03T01:09:01.458Z,24.51
2023-04-03T01:09:31.456Z,24.53
2023-04-03T01:10:01.450Z,24.51
2023-04-03T01:10:31.570Z,24.53
2023-04-03T01:11:01.697Z,24.53
2023-04-03T01:11:31.693Z,24.51
2023-04-03T01:12:01.718Z,24.53
2023-04-03T01:12:31.721Z,24.50
2023-04-03T01:13:01.708Z,24.53
2023-04-03T01:13:31.824Z,24.53
2023-04-03T01:14:01.945Z,24.53
2023-04-03T01:14:31.982Z,24.51
2023-04-03T01:15:01.972Z,24.53
2023-04-03T01:15:32.079Z,24.51
2023-04-03T01:16:02.113Z,24.50
2023-04-03T01:16:32.197Z,24.51
2023-04-03T01:17:02.253Z,24.53
2023-04-03T01:17:32.320Z,24.53
2023-04-03T01:18:02.403Z,24.51
2023-04-03T01:18:32.417Z,24.51
2023-04-03T01:19:02.452Z,24.53
2023-04-03T01:19:32.511Z,24.51
2023-04-03T01:20:02.546Z,24.53
2023-04-03T01:20:32.635Z,24.50
2023-04-03T01:21:02.654Z,24.54
2023-04-03T01:21:32.697Z,24.53
2023-04-03T01:22:02.718Z,24.51
2023-04-03T01:22:32.757Z,24.48
2023-04-03T01:23:02.799Z,24.48
2023-04-03T01:23:32.842Z,24.51
2023-04-03T01:24:02.851Z,24.50
2023-04-03T01:24:32.885Z,24.48
2023-04-03T01:25:02.915Z,24.50
2023-04-03T01:25:32.946Z,24.48
2023-04-03T01:26:03.001Z,24.50
2023-04-03T01:26:33.024Z,24.47
2023-04-03T01:27:03.059Z,24.48
2023-04-03T01:27:33.091Z,24.47
2023-04-03T01:28:03.127Z,24.48
2023-04-03T01:28:33.165Z,24.50
2023-04-03T01:29:03.200Z,24.48
2023-04-03T01:29:33.221Z,24.48
2023-04-03T01:30:03.252Z,24.47
2023-04-03T01:30:33.301Z,24.47
2023-04-03T01:31:03.388Z,24.47
2023-04-03T01:31:33.461Z,24.48
2023-04-03T01:32:03.505Z,24.47
2023-04-03T01:32:33.600Z,24.48
2023-04-03T01:33:03.676Z,24.48
2023-04-03T01:33:33.708Z,24.46
2023-04-03T01:34:03.746Z,24.48
2023-04-03T01:34:33.784Z,24.47
2023-04-03T01:35:03.811Z,24.46
2023-04-03T01:35:33.887Z,24.47
2023-04-03T01:36:03.957Z,24.46
2023-04-03T01:36:33.989Z,24.47
2023-04-03T01:37:04.018Z,24.47
2023-04-03T01:37:34.049Z,24.48
2023-04-03T01:38:04.078Z,24.47
2023-04-03T01:38:34.119Z,24.44
2023-04-03T01:39:04.148Z,24.47
2023-04-03T01:39:34.202Z,24.47
2023-04-03T01:40:04.237Z,24.47
2023-04-03T01:40:34.372Z,24.47
2023-04-03T01:41:04.361Z,24.47
2023-04-03T01:41:34.410Z,24.44
2023-04-03T01:42:04.431Z,24.44
2023-04-03T01:42:34.452Z,24.48
2023-04-03T01:43:04.481Z,24.44
2023-04-03T01:43:34.520Z,24.46
2023-04-03T01:44:04.557Z,24.44
2023-04-03T01:44:34.613Z,24.46
2023-04-03T01:45:04.644Z,24.47
2023-04-03T01:45:34.717Z,24.44
2023-04-03T01:46:04.780Z,24.46
2023-04-03T01:46:34.831Z,24.46
2023-04-03T01:47:04.864Z,24.44
2023-04-03T01:47:34.928Z,24.44
2023-04-03T01:48:04.962Z,24.46
2023-04-03T01:48:35.019Z,24.46
2023-04-03T01:49:05.042Z,24.46
2023-04-03T01:49:35.154Z,24.47
2023-04-03T01:50:05.193Z,24.44
2023-04-03T01:50:35.473Z,24.48
2023-04-03T01:51:05.286Z,24.44
2023-04-03T01:51:35.342Z,24.44
2023-04-03T01:52:05.347Z,24.44
2023-04-03T01:52:35.377Z,24.47
2023-04-03T01:53:05.411Z,24.44
2023-04-03T01:53:35.446Z,24.44
2023-04-03T01:54:05.493Z,24.46
2023-04-03T01:54:35.611Z,24.44
2023-04-03T01:55:05.524Z,24.43
2023-04-03T01:55:35.549Z,24.44
2023-04-03T01:56:05.576Z,24.44
2023-04-03T01:56:35.611Z,24.43
2023-04-03T01:57:05.739Z,24.42
2023-04-03T01:57:35.710Z,24.44
2023-04-03T01:58:05.697Z,24.43
2023-04-03T01:58:35.727Z,24.44
2023-04-03T01:59:05.752Z,24.46
2023-04-03T01:59:35.814Z,24.44
2023-04-03T02:00:05.841Z,24.44
2023-04-03T02:00:36.052Z,24.42
2023-04-03T02:01:05.920Z,24.42
2023-04-03T02:01:36.094Z,24.43
2023-04-03T02:02:06.035Z,24.43
2023-04-03T02:02:36.095Z,24.43
2023-04-03T02:03:06.170Z,24.43
2023-04-03T02:03:36.238Z,24.42
2023-04-03T02:04:06.332Z,24.43
2023-04-03T02:04:36.344Z,24.42
2023-04-03T02:05:06.370Z,24.43
2023-04-03T02:05:36.403Z,24.43
2023-04-03T02:06:06.435Z,24.42
2023-04-03T02:06:36.549Z,24.42
2023-04-03T02:07:06.710Z,24.43
2023-04-03T02:07:36.707Z,24.42
2023-04-03T02:08:06.800Z,24.42
2023-04-03T02:08:36.909Z,24.42
2023-04-03T02:09:06.906Z,24.43
2023-04-03T02:09:37.022Z,24.44
2023-04-03T02:10:07.142Z,24.43
2023-04-03T02:10:37.669Z,24.44
2023-04-03T02:11:07.360Z,24.40
2023-04-03T02:11:37.349Z,24.42
2023-04-03T02:12:07.359Z,24.42
2023-04-03T02:12:37.353Z,24.44
2023-04-03T02:13:07.464Z,24.43
2023-04-03T02:13:37.580Z,24.44
2023-04-03T02:14:07.705Z,24.44
2023-04-03T02:14:37.836Z,24.44
2023-04-03T02:15:07.836Z,24.43
2023-04-03T02:15:37.825Z,24.42
2023-04-03T02:16:07.889Z,24.40
2023-04-03T02:16:37.916Z,24.42
2023-04-03T02:17:07.933Z,24.40
2023-04-03T02:17:38.024Z,24.42
2023-04-03T02:18:08.110Z,24.42
2023-04-03T02:18:38.042Z,24.40
2023-04-03T02:19:08.082Z,24.40
2023-04-03T02:19:38.101Z,24.42
2023-04-03T02:20:08.129Z,24.42
2023-04-03T02:20:38.491Z,24.42
2023-04-03T02:21:08.255Z,24.42
2023-04-03T02:21:38.255Z,24.42
2023-04-03T02:22:08.288Z,24.40
2023-04-03T02:22:38.339Z,24.42
2023-04-03T02:23:08.341Z,24.42
2023-04-03T02:23:38.377Z,24.40
2023-04-03T02:24:08.411Z,24.42
2023-04-03T02:24:38.443Z,24.42
2023-04-03T02:25:08.483Z,24.40
2023-04-03T02:25:38.829Z,24.42
2023-04-03T02:26:08.502Z,24.39
2023-04-03T02:26:38.535Z,24.39
2023-04-03T02:27:08.574Z,24.40
2023-04-03T02:27:38.608Z,24.42
2023-04-03T02:28:08.642Z,24.40
2023-04-03T02:28:38.689Z,24.40
2023-04-03T02:29:08.708Z,24.42
2023-04-03T02:29:38.776Z,24.40
2023-04-03T02:30:08.826Z,24.39
2023-04-03T02:30:39.145Z,24.40
2023-04-03T02:31:08.983Z,24.39
2023-04-03T02:31:38.962Z,24.40
2023-04-03T02:32:08.997Z,24.39
2023-04-03T02:32:39.097Z,24.37
2023-04-03T02:33:09.145Z,24.39
2023-04-03T02:33:39.166Z,24.39
2023-04-03T02:34:09.213Z,24.39
2023-04-03T02:34:39.257Z,24.39
2023-04-03T02:35:09.278Z,24.37
2023-04-03T02:35:39.348Z,24.37
2023-04-03T02:36:09.355Z,24.39
2023-04-03T02:36:39.385Z,24.39
2023-04-03T02:37:09.442Z,24.37
2023-04-03T02:37:39.467Z,24.37
2023-04-03T02:38:09.524Z,24.40
2023-04-03T02:38:39.529Z,24.36
2023-04-03T02:39:09.565Z,24.39
2023-04-03T02:39:39.588Z,24.37
2023-04-03T02:40:09.683Z,24.37
2023-04-03T02:40:39.972Z,24.34
2023-04-03T02:41:09.802Z,24.37
2023-04-03T02:41:39.825Z,24.36
2023-04-03T02:42:09.888Z,24.39
2023-04-03T02:42:39.929Z,24.36
2023-04-03T02:43:09.953Z,24.37
2023-04-03T02:43:39.999Z,24.36
2023-04-03T02:44:10.008Z,24.36
2023-04-03T02:44:40.059Z,24.36
2023-04-03T02:45:10.097Z,24.34
2023-04-03T02:45:40.121Z,24.37
2023-04-03T02:46:10.273Z,24.37
2023-04-03T02:46:40.201Z,24.36
2023-04-03T02:47:10.264Z,24.36
2023-04-03T02:47:40.353Z,24.37
2023-04-03T02:48:10.471Z,24.37
2023-04-03T02:48:40.488Z,24.37
2023-04-03T02:49:10.539Z,24.36
2023-04-03T02:49:40.569Z,24.36
2023-04-03T02:50:10.594Z,24.37
2023-04-03T02:50:40.633Z,24.42
2023-04-03T02:51:10.654Z,24.44
2023-04-03T02:51:40.695Z,24.48
2023-04-03T02:52:10.720Z,24.50
2023-04-03T02:52:40.756Z,24.53
2023-04-03T02:53:10.786Z,24.55
2023-04-03T02:53:40.843Z,24.58
2023-04-03T02:54:10.866Z,24.61
2023-04-03T02:54:41.048Z,24.64
2023-04-03T02:55:10.947Z,24.67
2023-04-03T02:55:40.992Z,24.68
2023-04-03T02:56:11.034Z,24.70
2023-04-03T02:56:41.066Z,24.71
2023-04-03T02:57:11.116Z,24.71
2023-04-03T02:57:41.174Z,24.72
2023-04-03T02:58:11.203Z,24.74
2023-04-03T02:58:41.234Z,24.74
2023-04-03T02:59:11.269Z,24.77
2023-04-03T02:59:41.474Z,24.78
2023-04-03T03:00:11.365Z,24.78
2023-04-03T03:00:41.402Z,24.79
2023-04-03T03:01:11.443Z,24.82
2023-04-03T03:01:41.468Z,24.82
2023-04-03T03:02:11.557Z,24.85
2023-04-03T03:02:41.617Z,24.85
2023-04-03T03:03:11.651Z,24.88
2023-04-03T03:03:41.666Z,24.86
2023-04-03T03:04:11.692Z,24.89
2023-04-03T03:04:41.817Z,24.89
2023-04-03T03:05:11.786Z,24.89
2023-04-03T03:05:41.820Z,24.94
2023-04-03T03:06:11.837Z,24.92
2023-04-03T03:06:42.915Z,24.92
2023-04-03T03:07:50.862Z,24.88
2023-04-03T03:08:20.935Z,24.92
2023-04-03T03:08:51.042Z,24.92
2023-04-03T03:09:21.097Z,24.94
2023-04-03T03:09:51.197Z,24.94
2023-04-03T03:10:21.266Z,24.95
2023-04-03T03:10:51.349Z,24.98
2023-04-03T03:11:21.423Z,24.99
2023-04-03T03:11:51.498Z,24.98
2023-04-03T03:12:21.589Z,24.99
2023-04-03T03:12:51.682Z,25.01
2023-04-03T03:13:21.742Z,25.01
2023-04-03T03:13:51.820Z,24.99
2023-04-03T03:14:21.902Z,24.99
2023-04-03T03:14:52.003Z,25.01
2023-04-03T03:15:22.081Z,25.02
2023-04-03T03:15:52.182Z,25.01
2023-04-03T03:16:22.284Z,25.05
2023-04-03T03:16:52.287Z,25.03
2023-04-03T03:17:22.406Z,25.02
2023-04-03T03:17:52.520Z,25.03
2023-04-03T03:18:22.490Z,25.02
2023-04-03T03:18:52.609Z,25.05
2023-04-03T03:19:22.728Z,25.05
2023-04-03T03:19:52.860Z,25.03
2023-04-03T03:20:22.856Z,25.02
2023-04-03T03:20:52.964Z,25.06
2023-04-03T03:21:23.110Z,25.02
2023-04-03T03:21:53.091Z,25.05
2023-04-03T03:22:23.197Z,25.06
2023-04-03T03:22:53.335Z,25.07
2023-04-03T03:23:23.335Z,25.06
2023-04-03T03:23:53.447Z,25.06
2023-04-03T03:24:23.586Z,25.09
2023-04-03T03:24:53.581Z,25.06
2023-04-03T03:25:23.557Z,25.07
2023-04-03T03:25:53.673Z,25.07
2023-04-03T03:26:23.791Z,25.06
2023-04-03T03:26:53.931Z,25.07
2023-04-03T03:27:24.026Z,25.09
2023-04-03T03:27:54.167Z,25.09
2023-04-03T03:28:24.153Z,25.06
2023-04-03T03:28:54.290Z,25.07
2023-04-03T03:29:24.266Z,25.07
2023-04-03T03:29:54.377Z,25.09
2023-04-03T03:30:24.375Z,25.07
2023-04-03T03:30:54.495Z,25.09
2023-04-03T03:31:24.627Z,25.07
2023-04-03T03:31:54.655Z,25.06
2023-04-03T03:32:24.667Z,25.09
2023-04-03T03:32:54.723Z,25.07
2023-04-03T03:33:24.710Z,25.06
2023-04-03T03:33:54.829Z,25.05
2023-04-03T03:34:24.944Z,25.06
2023-04-03T03:34:54.955Z,25.06
2023-04-03T03:35:24.956Z,25.02
2023-04-03T03:35:55.127Z,25.07
2023-04-03T03:36:25.150Z,25.07
2023-04-03T03:36:55.135Z,25.07
2023-04-03T03:37:25.252Z,25.05
2023-04-03T03:37:55.245Z,25.05
2023-04-03T03:38:25.360Z,25.06
2023-04-03T03:38:55.485Z,25.07
2023-04-03T03:39:25.555Z,25.06
2023-04-03T03:39:55.795Z,25.06
2023-04-03T03:40:25.759Z,25.07
2023-04-03T03:40:55.876Z,25.06
2023-04-03T03:41:25.874Z,25.07
2023-04-03T03:41:55.990Z,25.09
2023-04-03T03:42:26.110Z,25.06
2023-04-03T03:42:56.252Z,25.06
2023-04-03T03:43:26.232Z,25.10
2023-04-03T03:43:56.356Z,25.10
2023-04-03T03:44:26.464Z,25.10
2023-04-03T03:44:56.492Z,25.07
2023-04-03T03:45:26.458Z,25.10
2023-04-03T03:45:56.579Z,25.07
2023-04-03T03:46:26.612Z,25.09
2023-04-03T03:46:56.648Z,25.12
2023-04-03T03:47:26.675Z,25.09
2023-04-03T03:47:56.682Z,25.09
2023-04-03T03:48:26.709Z,25.09
2023-04-03T03:48:56.718Z,25.09
2023-04-03T03:49:26.700Z,25.10
2023-04-03T03:49:56.819Z,25.06
2023-04-03T03:50:26.822Z,25.07
2023-04-03T03:50:56.928Z,25.09
2023-04-03T03:51:27.043Z,25.09
2023-04-03T03:51:57.036Z,25.10
2023-04-03T03:52:27.049Z,25.06
2023-04-03T03:52:57.167Z,25.07
2023-04-03T03:53:27.163Z,25.06
2023-04-03T03:53:57.290Z,25.06
2023-04-03T03:54:27.393Z,25.07
2023-04-03T03:54:57.416Z,25.06
2023-04-03T03:55:27.512Z,25.05
2023-04-03T03:55:57.651Z,25.07
2023-04-03T03:56:27.626Z,25.06
2023-04-03T03:56:57.641Z,25.05
2023-04-03T03:57:27.643Z,25.09
2023-04-03T03:57:57.652Z,25.07
2023-04-03T03:58:27.634Z,25.09
2023-04-03T03:58:57.631Z,25.09
2023-04-03T03:59:27.747Z,25.09
2023-04-03T03:59:57.876Z,25.09
2023-04-03T04:00:27.870Z,25.07
2023-04-03T04:00:58.020Z,25.09
2023-04-03T04:01:27.992Z,25.09
2023-04-03T04:01:58.167Z,25.07
2023-04-03T04:02:28.266Z,25.10
2023-04-03T04:02:59.321Z,25.12
2023-04-03T04:03:28.400Z,25.13
2023-04-03T04:03:58.491Z,25.13
2023-04-03T04:04:28.505Z,25.15
2023-04-03T04:04:58.625Z,25.15
2023-04-03T04:05:28.750Z,25.16
2023-04-03T04:05:58.854Z,25.13
2023-04-03T04:06:28.846Z,25.17
2023-04-03T04:06:58.970Z,25.17
2023-04-03T04:07:29.069Z,25.17
2023-04-03T04:07:59.148Z,25.19
2023-04-03T04:08:29.232Z,25.19
2023-04-03T04:08:59.309Z,25.17
2023-04-03T04:09:29.392Z,25.20
2023-04-03T04:09:59.520Z,25.20
2023-04-03T04:10:29.583Z,25.23
2023-04-03T04:10:59.657Z,25.17
2023-04-03T04:11:29.733Z,25.20
2023-04-03T04:11:59.817Z,25.20
2023-04-03T04:12:29.897Z,25.23
2023-04-03T04:12:59.981Z,25.22
2023-04-03T04:13:30.058Z,25.24
2023-04-03T04:14:00.142Z,25.24
2023-04-03T04:14:30.228Z,25.23
2023-04-03T04:15:00.301Z,25.23
2023-04-03T04:15:30.380Z,25.24
2023-04-03T04:16:00.460Z,25.23
2023-04-03T04:16:30.588Z,25.22
2023-04-03T04:17:00.572Z,25.23
2023-04-03T04:17:30.674Z,25.22
2023-04-03T04:18:00.704Z,25.22
2023-04-03T04:18:30.697Z,25.23
2023-04-03T04:19:00.725Z,25.23
2023-04-03T04:19:30.747Z,25.24
2023-04-03T04:20:00.769Z,25.24
2023-04-03T04:20:30.885Z,25.27
2023-04-03T04:21:00.888Z,25.26
2023-04-03T04:21:31.009Z,25.27
2023-04-03T04:22:01.125Z,25.29
2023-04-03T04:22:31.238Z,25.27
2023-04-03T04:23:01.287Z,25.30
2023-04-03T04:23:31.268Z,25.30
2023-04-03T04:24:01.388Z,25.32
2023-04-03T04:24:31.507Z,25.32
2023-04-03T04:25:01.499Z,25.29
2023-04-03T04:25:31.520Z,25.30
2023-04-03T04:26:01.616Z,25.32
2023-04-03T04:26:31.613Z,25.29
2023-04-03T04:27:01.724Z,25.27
2023-04-03T04:27:31.715Z,25.29
2023-04-03T04:28:01.746Z,25.32
2023-04-03T04:28:31.734Z,25.33
2023-04-03T04:29:01.759Z,25.33
2023-04-03T04:29:31.856Z,25.33
2023-04-03T04:30:01.857Z,25.33
2023-04-03T04:30:31.978Z,25.33
2023-04-03T04:31:01.989Z,25.34
2023-04-03T04:31:32.060Z,25.36
2023-04-03T04:32:02.087Z,25.34
2023-04-03T04:32:32.297Z,25.36
2023-04-03T04:33:02.324Z,25.36
2023-04-03T04:33:32.345Z,25.37
2023-04-03T04:34:02.342Z,25.36
2023-04-03T04:34:32.511Z,25.37
2023-04-03T04:35:02.614Z,25.37
2023-04-03T04:35:32.820Z,25.38
2023-04-03T04:36:02.697Z,25.37
2023-04-03T04:36:32.857Z,25.40
2023-04-03T04:37:02.874Z,25.41
2023-04-03T04:37:32.842Z,25.41
2023-04-03T04:38:02.884Z,25.40
2023-04-03T04:38:32.881Z,25.41
2023-04-03T04:39:02.873Z,25.43
2023-04-03T04:39:32.989Z,25.40
2023-04-03T04:40:03.114Z,25.40
2023-04-03T04:40:33.229Z,25.41
2023-04-03T04:41:03.259Z,25.44
2023-04-03T04:41:33.233Z,25.44
2023-04-03T04:42:03.229Z,25.44
2023-04-03T04:42:33.350Z,25.45
2023-04-03T04:43:03.484Z,25.48
2023-04-03T04:43:33.496Z,25.47
2023-04-03T04:44:03.471Z,25.47
2023-04-03T04:44:33.591Z,25.47
2023-04-03T04:45:03.584Z,25.47
2023-04-03T04:45:33.583Z,25.48
2023-04-03T04:46:03.613Z,25.50
2023-04-03T04:46:33.644Z,25.48
2023-04-03T04:47:03.650Z,25.51
2023-04-03T04:47:33.678Z,25.48
2023-04-03T04:48:03.710Z,25.51
2023-04-03T04:48:33.687Z,25.54
2023-04-03T04:49:03.679Z,25.51
2023-04-03T04:49:33.798Z,25.54
2023-04-03T04:50:03.810Z,25.54
2023-04-03T04:50:33.842Z,25.56
2023-04-03T04:51:03.891Z,25.53
2023-04-03T04:51:41.170Z,25.56
2023-04-03T04:52:03.936Z,25.56
2023-04-03T04:52:34.051Z,25.56
2023-04-03T04:53:04.060Z,25.53
2023-04-03T04:53:34.054Z,25.56
2023-04-03T04:54:04.174Z,25.54
2023-04-03T04:54:34.292Z,25.56
2023-04-03T04:55:04.408Z,25.54
2023-04-03T04:55:34.840Z,25.53
2023-04-03T04:56:04.591Z,25.54
2023-04-03T04:56:34.745Z,25.56
2023-04-03T04:57:04.949Z,25.56
2023-04-03T04:57:35.027Z,25.57
2023-04-03T04:58:04.894Z,25.54
2023-04-03T04:58:34.887Z,25.56
2023-04-03T04:59:04.899Z,25.60
2023-04-03T04:59:35.009Z,25.60
2023-04-03T05:00:05.025Z,25.58
2023-04-03T05:00:35.001Z,25.62
2023-04-03T05:01:04.994Z,25.60
2023-04-03T05:01:35.139Z,25.60
2023-04-03T05:02:05.246Z,25.62
2023-04-03T05:02:35.199Z,25.60
2023-04-03T05:03:05.404Z,25.62
2023-04-03T05:03:35.336Z,25.62
2023-04-03T05:04:05.309Z,25.64
2023-04-03T05:04:35.337Z,25.65
2023-04-03T05:05:05.789Z,25.62
2023-04-03T05:05:35.638Z,25.64
2023-04-03T05:06:05.426Z,25.62
2023-04-03T05:06:35.419Z,25.62
2023-04-03T05:07:05.425Z,25.62
2023-04-03T05:07:35.523Z,25.61
2023-04-03T05:08:05.618Z,25.64
2023-04-03T05:08:35.702Z,25.61
2023-04-03T05:09:05.785Z,25.62
2023-04-03T05:09:35.868Z,25.64
2023-04-03T05:10:05.968Z,25.64
2023-04-03T05:10:36.038Z,25.64
2023-04-03T05:11:06.050Z,25.64
2023-04-03T05:11:36.149Z,25.65
2023-04-03T05:12:06.257Z,25.67
2023-04-03T05:12:36.331Z,25.65
2023-04-03T05:13:06.423Z,25.68
2023-04-03T05:13:36.509Z,25.67
2023-04-03T05:14:06.594Z,25.68
2023-04-03T05:14:36.672Z,25.68
2023-04-03T05:15:06.761Z,25.71
2023-04-03T05:15:36.980Z,25.67
2023-04-03T05:16:07.011Z,25.70
2023-04-03T05:16:37.032Z,25.68
2023-04-03T05:17:06.977Z,25.67
2023-04-03T05:17:37.028Z,25.68
2023-04-03T05:18:07.045Z,25.67
2023-04-03T05:18:37.036Z,25.67
2023-04-03T05:19:07.039Z,25.65
2023-04-03T05:19:37.025Z,25.67
2023-04-03T05:20:07.155Z,25.64
2023-04-03T05:20:37.144Z,25.65
2023-04-03T05:21:07.274Z,25.62
2023-04-03T05:21:37.263Z,25.62
2023-04-03T05:22:07.267Z,25.62
2023-04-03T05:22:37.264Z,25.62
2023-04-03T05:23:07.389Z,25.62
2023-04-03T05:23:37.386Z,25.61
2023-04-03T05:24:07.383Z,25.62
2023-04-03T05:24:37.388Z,25.64
2023-04-03T05:25:07.395Z,25.62
2023-04-03T05:25:37.848Z,25.62
2023-04-03T05:26:07.407Z,25.61
2023-04-03T05:26:37.405Z,25.61
2023-04-03T05:27:07.522Z,25.62
2023-04-03T05:27:37.613Z,25.61
2023-04-03T05:28:07.580Z,25.62
2023-04-03T05:28:37.674Z,25.61
2023-04-03T05:29:07.715Z,25.64
2023-04-03T05:29:37.735Z,25.62
2023-04-03T05:30:07.725Z,25.62
2023-04-03T05:30:37.709Z,25.64
2023-04-03T05:31:07.826Z,25.58
2023-04-03T05:31:37.912Z,25.58
2023-04-03T05:32:07.898Z,25.44
2023-04-03T05:32:37.941Z,25.56
2023-04-03T05:33:08.029Z,25.58
2023-04-03T05:33:38.017Z,25.56
2023-04-03T05:34:08.142Z,25.54
2023-04-03T05:34:38.136Z,25.58
2023-04-03T05:35:08.127Z,25.62
2023-04-03T05:35:38.580Z,25.61
2023-04-03T05:36:08.342Z,25.60
2023-04-03T05:36:38.417Z,25.61
2023-04-03T05:37:08.330Z,25.61
2023-04-03T05:37:38.357Z,25.61
2023-04-03T05:38:08.421Z,25.62
2023-04-03T05:38:38.411Z,25.64
2023-04-03T05:39:08.470Z,25.64
2023-04-03T05:39:38.576Z,25.65
2023-04-03T05:40:08.693Z,25.62
2023-04-03T05:40:38.808Z,25.65
2023-04-03T05:41:08.815Z,25.67
2023-04-03T05:41:38.926Z,25.67
2023-04-03T05:42:08.925Z,25.68
2023-04-03T05:42:39.038Z,25.68
2023-04-03T05:43:09.186Z,25.67
2023-04-03T05:43:39.190Z,25.65
2023-04-03T05:44:09.198Z,25.60
2023-04-03T05:44:39.205Z,25.61
2023-04-03T05:45:09.204Z,25.64
2023-04-03T05:45:39.220Z,25.62
2023-04-03T05:46:09.244Z,25.64
2023-04-03T05:46:39.259Z,25.60
2023-04-03T05:47:09.281Z,25.65
2023-04-03T05:47:39.303Z,25.62
2023-04-03T05:48:09.348Z,25.64
2023-04-03T05:48:39.368Z,25.67
2023-04-03T05:49:09.487Z,25.67
2023-04-03T05:49:39.627Z,25.67
2023-04-03T05:50:09.627Z,25.67
2023-04-03T05:50:39.623Z,25.65
2023-04-03T05:51:09.728Z,25.67
2023-04-03T05:51:39.742Z,25.70
2023-04-03T05:52:09.749Z,25.68
2023-04-03T05:52:39.861Z,25.67
2023-04-03T05:53:09.980Z,25.67
2023-04-03T05:53:40.005Z,25.70
2023-04-03T05:54:09.993Z,25.67
2023-04-03T05:54:39.994Z,25.68
2023-04-03T05:55:10.036Z,25.70
2023-04-03T05:55:40.202Z,25.70
2023-04-03T05:56:10.168Z,25.70
2023-04-03T05:56:40.264Z,25.65
2023-04-03T05:57:10.444Z,25.64
2023-04-03T05:57:40.443Z,25.64
2023-04-03T05:58:11.755Z,25.62
2023-04-03T05:58:40.543Z,25.64
2023-04-03T05:59:10.517Z,25.61
2023-04-03T05:59:40.499Z,25.61
2023-04-03T06:00:10.674Z,25.60
2023-04-03T06:00:40.656Z,25.58
2023-04-03T06:01:10.653Z,25.57
2023-04-03T06:01:40.783Z,25.58
2023-04-03T06:02:10.777Z,25.58
2023-04-03T06:02:40.924Z,25.57
2023-04-03T06:03:10.988Z,25.56
2023-04-03T06:03:41.019Z,25.54
2023-04-03T06:04:11.105Z,25.54
2023-04-03T06:04:41.107Z,25.54
2023-04-03T06:05:11.176Z,25.54
2023-04-03T06:05:41.136Z,25.54
2023-04-03T06:06:11.049Z,25.54
2023-04-03T06:06:41.157Z,25.51
2023-04-03T06:07:11.150Z,25.56
2023-04-03T06:07:41.244Z,25.56
2023-04-03T06:08:11.323Z,25.56
2023-04-03T06:08:41.409Z,25.56
2023-04-03T06:09:11.487Z,25.54
2023-04-03T06:09:41.578Z,25.56
2023-04-03T06:10:11.655Z,25.53
2023-04-03T06:10:41.750Z,25.54
2023-04-03T06:11:11.843Z,25.56
2023-04-03T06:11:41.973Z,25.57
2023-04-03T06:12:12.040Z,25.56
2023-04-03T06:12:42.136Z,25.56
2023-04-03T06:13:12.215Z,25.56
2023-04-03T06:13:42.305Z,25.54
2023-04-03T06:14:12.403Z,25.54
2023-04-03T06:14:42.498Z,25.56
2023-04-03T06:15:12.569Z,25.57
2023-04-03T06:15:42.660Z,25.58
2023-04-03T06:16:12.751Z,25.60
2023-04-03T06:16:42.848Z,25.60
2023-04-03T06:17:12.966Z,25.60
2023-04-03T06:17:42.955Z,25.60
2023-04-03T06:18:12.968Z,25.60
2023-04-03T06:18:42.954Z,25.60
2023-04-03T06:19:12.949Z,25.60
2023-04-03T06:19:43.047Z,25.61
2023-04-03T06:20:13.033Z,25.58
2023-04-03T06:20:43.148Z,25.61
2023-04-03T06:21:13.143Z,25.61
2023-04-03T06:21:43.138Z,25.62
2023-04-03T06:22:13.149Z,25.58
2023-04-03T06:22:43.142Z,25.60
2023-04-03T06:23:13.144Z,25.58
2023-04-03T06:23:43.158Z,25.61
2023-04-03T06:24:13.150Z,25.60
2023-04-03T06:24:43.158Z,25.60
2023-04-03T06:25:13.173Z,25.61
2023-04-03T06:25:43.145Z,25.61
2023-04-03T06:26:13.140Z,25.62
2023-04-03T06:26:43.254Z,25.61
2023-04-03T06:27:13.254Z,25.64
2023-04-03T06:27:43.253Z,25.62